createdAt,value
2023-01-07T00:00:01.877Z,17.51
2023-01-07T00:02:34.676Z,17.50
2023-01-07T00:05:07.582Z,17.48
2023-01-07T00:07:42.355Z,17.47
2023-01-07T00:10:14.972Z,17.48
2023-01-07T00:12:47.520Z,17.48
2023-01-07T00:15:20.092Z,17.47
2023-01-07T00:17:52.753Z,17.47
2023-01-07T00:20:25.407Z,17.46
2023-01-07T00:22:58.057Z,17.45
2023-01-07T00:25:30.768Z,17.45
2023-01-07T00:28:03.516Z,17.43
2023-01-07T00:30:36.192Z,17.44
2023-01-07T00:33:11.344Z,17.43
2023-01-07T00:35:45.262Z,17.42
2023-01-07T00:38:19.300Z,17.42
2023-01-07T00:40:51.811Z,17.41
2023-01-07T00:43:24.439Z,17.41
2023-01-07T00:45:57.337Z,17.41
2023-01-07T00:48:29.885Z,17.36
2023-01-07T00:51:02.529Z,17.40
2023-01-07T00:53:35.175Z,17.39
2023-01-07T00:56:10.603Z,17.37
2023-01-07T00:58:43.611Z,17.38
2023-01-07T01:01:16.271Z,17.39
2023-01-07T01:03:49.051Z,17.38
2023-01-07T01:06:21.799Z,17.36
2023-01-07T01:08:54.494Z,17.36
2023-01-07T01:11:27.429Z,17.37
2023-01-07T01:14:00.133Z,17.33
2023-01-07T01:16:32.855Z,17.36
2023-01-07T01:19:05.546Z,17.34
2023-01-07T01:21:41.151Z,17.34
2023-01-07T01:24:13.987Z,17.34
2023-01-07T01:26:46.690Z,17.33
2023-01-07T01:29:19.497Z,17.30
2023-01-07T01:31:52.290Z,17.33
2023-01-07T01:34:24.824Z,17.32
2023-01-07T01:36:57.477Z,17.30
2023-01-07T01:39:31.358Z,17.29
2023-01-07T01:42:04.174Z,17.30
2023-01-07T01:44:55.637Z,17.35
2023-01-07T01:48:02.717Z,17.33
2023-01-07T01:50:41.648Z,17.29
2023-01-07T01:53:22.130Z,17.28
2023-01-07T01:56:10.184Z,17.29
2023-01-07T01:58:52.741Z,17.28
2023-01-07T02:01:25.563Z,17.28
2023-01-07T02:03:59.070Z,17.26
2023-01-07T02:06:36.438Z,17.26
2023-01-07T02:09:12.722Z,17.25
2023-01-07T02:12:23.596Z,17.29
2023-01-07T02:15:11.374Z,17.26
2023-01-07T02:18:08.474Z,17.30
2023-01-07T02:20:44.090Z,17.25
2023-01-07T02:23:51.069Z,17.29
2023-01-07T02:27:00.319Z,17.25
2023-01-07T02:30:33.090Z,17.28
2023-01-07T02:33:22.006Z,17.23
2023-01-07T02:36:25.577Z,17.26
2023-01-07T02:39:31.807Z,17.27
2023-01-07T02:42:32.030Z,17.26
2023-01-07T02:45:31.769Z,17.26
2023-01-07T02:48:12.190Z,17.20
2023-01-07T02:50:44.885Z,17.18
2023-01-07T02:53:20.471Z,17.18
2023-01-07T02:56:14.150Z,17.18
2023-01-07T02:59:01.406Z,17.19
2023-01-07T03:02:08.924Z,17.21
2023-01-07T03:05:02.153Z,17.17
2023-01-07T03:08:07.632Z,17.17
2023-01-07T03:10:57.765Z,17.17
2023-01-07T03:13:43.347Z,17.14
2023-01-07T03:16:35.091Z,17.17
2023-01-07T03:19:16.191Z,17.15
2023-01-07T03:21:52.515Z,17.15
2023-01-07T03:24:29.935Z,17.14
2023-01-07T03:27:06.235Z,17.14
2023-01-07T03:29:39.159Z,17.13
2023-01-07T03:32:27.564Z,17.13
2023-01-07T03:35:00.276Z,17.14
2023-01-07T03:37:34.638Z,17.10
2023-01-07T03:40:11.090Z,17.11
2023-01-07T03:42:49.120Z,17.12
2023-01-07T03:45:24.753Z,17.08
2023-01-07T03:47:58.161Z,17.12
2023-01-07T03:50:30.732Z,17.13
2023-01-07T03:53:03.910Z,17.11
2023-01-07T03:55:36.671Z,17.12
2023-01-07T03:58:09.176Z,17.07
2023-01-07T04:00:41.697Z,17.09
2023-01-07T04:03:14.219Z,17.07
2023-01-07T04:05:46.702Z,17.09
2023-01-07T04:08:19.192Z,17.08
2023-01-07T04:10:51.719Z,17.09
2023-01-07T04:13:24.239Z,17.09
2023-01-07T04:15:56.894Z,17.09
2023-01-07T04:18:29.417Z,17.09
2023-01-07T04:21:01.886Z,17.08
2023-01-07T04:23:34.463Z,17.07
2023-01-07T04:26:07.007Z,17.06
2023-01-07T04:28:39.639Z,17.06
2023-01-07T04:31:12.275Z,17.07
2023-01-07T04:33:44.834Z,17.07
2023-01-07T04:36:17.544Z,17.06
2023-01-07T04:38:50.057Z,17.08
2023-01-07T04:41:22.714Z,17.06
2023-01-07T04:43:55.356Z,17.05
2023-01-07T04:46:28.059Z,17.07
2023-01-07T04:49:00.676Z,17.05
2023-01-07T04:51:33.384Z,17.03
2023-01-07T04:54:05.997Z,17.05
2023-01-07T04:56:40.103Z,17.05
2023-01-07T04:59:12.713Z,17.01
2023-01-07T05:01:45.415Z,16.99
2023-01-07T05:04:18.359Z,17.04
2023-01-07T05:06:50.935Z,17.03
2023-01-07T05:09:23.607Z,17.01
2023-01-07T05:11:56.497Z,17.02
2023-01-07T05:14:28.989Z,17.01
2023-01-07T05:17:01.585Z,17.00
2023-01-07T05:19:34.192Z,16.99
2023-01-07T05:22:06.656Z,17.00
2023-01-07T05:24:39.218Z,17.00
2023-01-07T05:27:11.889Z,17.00
2023-01-07T05:29:44.413Z,17.00
2023-01-07T05:32:17.171Z,16.99
2023-01-07T05:34:49.768Z,16.99
2023-01-07T05:37:22.436Z,16.96
2023-01-07T05:39:55.111Z,16.98
2023-01-07T05:42:27.763Z,16.98
2023-01-07T05:45:00.458Z,16.99
2023-01-07T05:47:33.138Z,16.97
2023-01-07T05:50:06.511Z,16.99
2023-01-07T05:52:39.103Z,16.99
2023-01-07T05:55:12.244Z,16.97
2023-01-07T05:57:44.832Z,16.97
2023-01-07T06:00:18.581Z,16.94
2023-01-07T06:02:51.327Z,16.97
2023-01-07T06:05:24.254Z,16.96
2023-01-07T06:07:57.828Z,16.96
2023-01-07T06:10:30.408Z,16.95
2023-01-07T06:13:03.008Z,16.96
2023-01-07T06:15:35.542Z,16.94
2023-01-07T06:18:08.060Z,16.95
2023-01-07T06:20:40.633Z,16.95
2023-01-07T06:23:13.149Z,16.95
2023-01-07T06:25:45.754Z,16.93
2023-01-07T06:28:18.787Z,16.95
2023-01-07T06:30:51.662Z,16.95
2023-01-07T06:33:24.311Z,16.95
2023-01-07T06:35:56.887Z,16.97
2023-01-07T06:38:29.538Z,17.00
2023-01-07T06:41:02.217Z,17.01
2023-01-07T06:43:34.852Z,17.04
2023-01-07T06:46:07.701Z,17.05
2023-01-07T06:48:40.310Z,17.09
2023-01-07T06:51:12.958Z,17.14
2023-01-07T06:53:45.523Z,17.19
2023-01-07T06:56:18.057Z,17.24
2023-01-07T06:58:50.792Z,17.29
2023-01-07T07:01:23.493Z,17.36
2023-01-07T07:03:56.140Z,17.39
2023-01-07T07:06:28.738Z,17.47
2023-01-07T07:09:01.221Z,17.54
2023-01-07T07:11:34.259Z,17.59
2023-01-07T07:14:06.839Z,17.64
2023-01-07T07:16:39.520Z,17.70
2023-01-07T07:19:12.127Z,17.78
2023-01-07T07:21:44.795Z,17.83
2023-01-07T07:24:17.454Z,17.87
2023-01-07T07:26:50.914Z,17.93
2023-01-07T07:29:23.440Z,17.99
2023-01-07T07:31:56.038Z,18.04
2023-01-07T07:34:28.585Z,18.08
2023-01-07T07:37:01.529Z,18.12
2023-01-07T07:39:34.355Z,18.18
2023-01-07T07:42:06.921Z,18.21
2023-01-07T07:44:39.483Z,18.25
2023-01-07T07:47:12.359Z,18.28
2023-01-07T07:49:44.877Z,18.34
2023-01-07T07:52:18.828Z,18.37
2023-01-07T07:54:51.525Z,18.41
2023-01-07T07:57:24.088Z,18.44
2023-01-07T07:59:56.646Z,18.47
2023-01-07T08:02:29.418Z,18.49
2023-01-07T08:05:02.131Z,18.53
2023-01-07T08:07:37.508Z,18.57
2023-01-07T08:10:10.351Z,18.59
2023-01-07T08:12:43.197Z,18.61
2023-01-07T08:15:16.084Z,18.62
2023-01-07T08:17:48.671Z,18.66
2023-01-07T08:20:21.159Z,18.68
2023-01-07T08:22:54.017Z,18.69
2023-01-07T08:25:28.156Z,18.71
2023-01-07T08:28:01.453Z,18.84
2023-01-07T08:30:34.057Z,18.73
2023-01-07T08:33:08.504Z,18.72
2023-01-07T08:35:41.218Z,18.72
2023-01-07T08:38:13.792Z,18.73
2023-01-07T08:40:46.357Z,18.70
2023-01-07T08:43:24.140Z,18.66
2023-01-07T08:45:56.973Z,18.71
2023-01-07T08:48:31.945Z,18.72
2023-01-07T08:51:04.695Z,18.70
2023-01-07T08:53:49.167Z,18.65
2023-01-07T08:56:22.734Z,18.82
2023-01-07T08:59:01.296Z,18.68
2023-01-07T09:01:33.896Z,18.65
2023-01-07T09:04:06.422Z,18.65
2023-01-07T09:06:39.101Z,18.61
2023-01-07T09:09:21.945Z,18.61
2023-01-07T09:11:54.546Z,18.60
2023-01-07T09:14:27.317Z,18.58
2023-01-07T09:16:59.893Z,18.56
2023-01-07T09:19:32.555Z,18.49
2023-01-07T09:22:16.652Z,18.53
2023-01-07T09:24:49.152Z,18.52
2023-01-07T09:30:21.037Z,18.49
2023-01-07T09:32:53.483Z,18.62
2023-01-07T09:35:52.418Z,18.47
2023-01-07T09:38:34.107Z,18.44
2023-01-07T09:41:41.063Z,18.48
2023-01-07T09:44:39.279Z,18.45
2023-01-07T09:47:17.272Z,18.39
2023-01-07T09:50:08.087Z,18.39
2023-01-07T09:52:48.418Z,18.35
2023-01-07T09:55:31.901Z,18.38
2023-01-07T09:58:05.502Z,18.36
2023-01-07T10:00:49.369Z,18.36
2023-01-07T10:03:51.719Z,18.41
2023-01-07T10:06:43.430Z,18.35
2023-01-07T10:09:43.909Z,18.37
2023-01-07T10:12:39.885Z,18.36
2023-01-07T10:15:23.552Z,18.30
2023-01-07T10:18:12.373Z,18.34
2023-01-07T10:21:49.434Z,18.37
2023-01-07T10:24:32.151Z,18.28
2023-01-07T10:27:12.670Z,18.26
2023-01-07T10:29:52.919Z,18.26
2023-01-07T10:32:32.101Z,18.23
2023-01-07T10:35:14.627Z,18.22
2023-01-07T10:37:47.590Z,18.22
2023-01-07T10:40:46.922Z,18.22
2023-01-07T10:43:54.320Z,18.20
2023-01-07T10:46:48.557Z,18.19
2023-01-07T10:50:22.613Z,18.27
2023-01-07T10:53:38.155Z,18.23
2023-01-07T10:56:30.191Z,18.32
2023-01-07T10:59:03.880Z,18.18
2023-01-07T11:01:41.155Z,18.16
2023-01-07T11:04:16.423Z,18.15
2023-01-07T11:07:06.394Z,18.14
2023-01-07T11:09:45.713Z,18.10
2023-01-07T11:12:42.537Z,18.18
2023-01-07T11:15:33.230Z,18.15
2023-01-07T11:18:19.111Z,18.11
2023-01-07T11:20:58.063Z,18.04
2023-01-07T11:23:42.835Z,18.10
2023-01-07T11:26:29.943Z,18.13
2023-01-07T11:29:21.399Z,18.14
2023-01-07T11:32:00.580Z,18.12
2023-01-07T11:34:46.271Z,18.14
2023-01-07T11:37:42.092Z,18.22
2023-01-07T11:40:15.005Z,18.21
2023-01-07T11:43:22.006Z,18.26
2023-01-07T11:46:20.794Z,18.28
2023-01-07T11:49:00.653Z,18.33
2023-01-07T11:51:40.682Z,18.38
2023-01-07T11:54:27.856Z,18.43
2023-01-07T11:57:22.203Z,18.48
2023-01-07T12:00:16.426Z,18.55
2023-01-07T12:03:13.038Z,18.61
2023-01-07T12:05:45.635Z,18.60
2023-01-07T12:08:22.478Z,18.63
2023-01-07T12:11:04.788Z,18.65
2023-01-07T12:13:41.940Z,18.70
2023-01-07T12:16:15.271Z,18.73
2023-01-07T12:19:20.495Z,18.79
2023-01-07T12:22:02.107Z,18.93
2023-01-07T12:25:26.819Z,18.89
2023-01-07T12:28:11.007Z,18.91
2023-01-07T12:31:27.668Z,19.00
2023-01-07T12:34:39.457Z,19.02
2023-01-07T12:37:49.561Z,19.01
2023-01-07T12:40:47.393Z,19.05
2023-01-07T12:43:37.435Z,19.07
2023-01-07T12:46:18.406Z,19.07
2023-01-07T12:49:08.010Z,19.09
2023-01-07T12:51:55.273Z,19.05
2023-01-07T12:55:18.907Z,19.13
2023-01-07T12:58:33.599Z,19.13
2023-01-07T13:01:21.772Z,19.10
2023-01-07T13:04:39.838Z,19.14
2023-01-07T13:07:47.794Z,19.07
2023-01-07T13:10:51.851Z,19.12
2023-01-07T13:13:44.002Z,19.07
2023-01-07T13:16:16.832Z,19.05
2023-01-07T13:18:49.534Z,19.02
2023-01-07T13:21:25.397Z,19.03
2023-01-07T13:24:55.865Z,19.06
2023-01-07T13:27:57.068Z,19.16
2023-01-07T13:31:03.393Z,19.16
2023-01-07T13:33:54.283Z,19.02
2023-01-07T13:36:47.011Z,18.98
2023-01-07T13:40:02.308Z,18.96
2023-01-07T13:43:29.510Z,19.02
2023-01-07T13:46:18.675Z,18.93
2023-01-07T13:48:54.962Z,18.89
2023-01-07T13:51:33.472Z,18.88
2023-01-07T13:54:11.802Z,18.85
2023-01-07T13:56:44.537Z,18.83
2023-01-07T13:59:46.941Z,18.85
2023-01-07T14:02:23.236Z,18.81
2023-01-07T14:05:11.063Z,18.81
2023-01-07T14:08:04.416Z,18.77
2023-01-07T14:10:38.224Z,18.76
2023-01-07T14:13:45.248Z,18.77
2023-01-07T14:16:31.575Z,18.74
2023-01-07T14:19:37.684Z,18.74
2023-01-07T14:22:35.315Z,18.76
2023-01-07T14:25:23.643Z,18.68
2023-01-07T14:28:45.174Z,18.70
2023-01-07T14:31:28.163Z,18.66
2023-01-07T14:34:08.191Z,18.63
2023-01-07T14:37:02.518Z,18.67
2023-01-07T14:39:40.074Z,18.61
2023-01-07T14:42:41.146Z,18.61
2023-01-07T14:45:41.702Z,18.62
2023-01-07T14:48:17.124Z,18.56
2023-01-07T14:51:25.271Z,18.55
2023-01-07T14:54:16.628Z,18.52
2023-01-07T14:57:04.357Z,18.50
2023-01-07T15:00:01.591Z,18.48
2023-01-07T15:02:50.748Z,18.50
2023-01-07T15:10:01.492Z,18.41
2023-01-07T15:12:55.864Z,18.39
2023-01-07T15:16:11.745Z,18.45
2023-01-07T15:19:00.127Z,18.37
2023-01-07T15:25:02.931Z,18.37
2023-01-07T15:27:54.848Z,18.31
2023-01-07T15:31:21.537Z,18.35
2023-01-07T15:34:38.674Z,18.32
2023-01-07T15:40:06.132Z,18.24
2023-01-07T15:42:46.078Z,18.23
2023-01-07T15:45:25.546Z,18.21
2023-01-07T15:48:12.721Z,18.22
2023-01-07T15:50:45.897Z,18.19
2023-01-07T15:53:36.052Z,18.17
2023-01-07T15:57:07.448Z,18.21
2023-01-07T16:00:36.887Z,18.14
2023-01-07T16:03:17.200Z,18.09
2023-01-07T16:05:50.442Z,18.10
2023-01-07T16:08:33.292Z,18.14
2023-01-07T16:12:16.348Z,18.12
2023-01-07T16:18:49.293Z,18.01
2023-01-07T16:21:56.517Z,18.07
2023-01-07T16:24:36.554Z,18.09
2023-01-07T16:27:10.687Z,18.04
2023-01-07T16:29:54.060Z,18.05
2023-01-07T16:32:27.428Z,17.97
2023-01-07T16:35:28.754Z,18.01
2023-01-07T16:38:04.462Z,17.96
2023-01-07T16:40:38.811Z,17.99
2023-01-07T16:43:42.868Z,18.04
2023-01-07T16:46:24.268Z,17.98
2023-01-07T16:49:10.225Z,18.01
2023-01-07T16:51:50.286Z,17.95
2023-01-07T16:54:25.786Z,17.95
2023-01-07T16:57:05.474Z,17.93
2023-01-07T16:59:55.576Z,17.93
2023-01-07T17:02:48.560Z,17.95
2023-01-07T17:05:31.899Z,17.90
2023-01-07T17:08:19.157Z,17.94
2023-01-07T17:11:24.695Z,17.93
2023-01-07T17:14:22.647Z,17.86
2023-01-07T17:17:18.236Z,17.93
2023-01-07T17:20:12.987Z,17.94
2023-01-07T17:22:47.267Z,17.95
2023-01-07T17:25:24.871Z,18.09
2023-01-07T17:28:06.532Z,18.01
2023-01-07T17:30:41.881Z,18.03
2023-01-07T17:33:16.760Z,18.05
2023-01-07T17:35:49.370Z,18.10
2023-01-07T17:38:22.396Z,18.14
2023-01-07T17:40:56.048Z,18.16
2023-01-07T17:43:34.553Z,18.23
2023-01-07T17:46:11.985Z,18.27
2023-01-07T17:48:48.181Z,18.31
2023-01-07T17:51:20.961Z,18.37
2023-01-07T17:53:58.072Z,18.38
2023-01-07T17:56:30.640Z,18.45
2023-01-07T17:59:03.424Z,18.48
2023-01-07T18:01:36.542Z,18.53
2023-01-07T18:04:10.248Z,18.55
2023-01-07T18:06:43.479Z,18.60
2023-01-07T18:09:16.148Z,18.63
2023-01-07T18:12:07.690Z,18.67
2023-01-07T18:14:41.059Z,18.71
2023-01-07T18:17:13.644Z,18.73
2023-01-07T18:19:46.249Z,18.76
2023-01-07T18:22:20.631Z,18.79
2023-01-07T18:25:18.267Z,18.83
2023-01-07T18:28:04.348Z,18.84
2023-01-07T18:30:46.336Z,18.83
2023-01-07T18:33:21.535Z,18.84
2023-01-07T18:35:54.133Z,18.86
2023-01-07T18:38:28.962Z,18.83
2023-01-07T18:41:14.342Z,18.93
2023-01-07T18:43:47.129Z,18.93
2023-01-07T18:46:39.273Z,19.04
2023-01-07T18:49:36.298Z,19.06
2023-01-07T18:52:18.406Z,19.00
2023-01-07T18:54:51.088Z,19.02
2023-01-07T18:57:23.844Z,19.02
2023-01-07T18:59:57.416Z,18.97
2023-01-07T19:02:30.163Z,18.99
2023-01-07T19:05:02.831Z,18.96
2023-01-07T19:07:36.076Z,18.94
2023-01-07T19:10:09.352Z,18.91
2023-01-07T19:12:42.017Z,18.91
2023-01-07T19:15:14.688Z,18.87
2023-01-07T19:17:47.259Z,18.86
2023-01-07T19:20:19.830Z,18.84
2023-01-07T19:22:52.375Z,18.83
2023-01-07T19:25:26.166Z,18.81
2023-01-07T19:27:59.007Z,18.82
2023-01-07T19:30:41.128Z,18.79
2023-01-07T19:33:25.058Z,18.71
2023-01-07T19:36:09.399Z,18.76
2023-01-07T19:38:56.657Z,18.71
2023-01-07T19:41:29.554Z,18.70
2023-01-07T19:44:02.552Z,18.69
2023-01-07T19:46:37.590Z,18.65
2023-01-07T19:49:12.844Z,18.64
2023-01-07T19:51:52.535Z,18.64
2023-01-07T19:54:37.453Z,18.61
2023-01-07T19:57:29.076Z,18.61
2023-01-07T20:00:01.902Z,18.53
2023-01-07T20:02:34.609Z,18.56
2023-01-07T20:05:07.738Z,18.53
2023-01-07T20:07:40.482Z,18.53
2023-01-07T20:10:13.161Z,18.49
2023-01-07T20:12:54.754Z,18.49
2023-01-07T20:15:28.335Z,18.45
2023-01-07T20:18:02.877Z,18.41
2023-01-07T20:21:23.684Z,18.45
2023-01-07T20:23:56.241Z,18.42
2023-01-07T20:26:37.938Z,18.41
2023-01-07T20:29:31.380Z,18.44
2023-01-07T20:32:07.446Z,18.38
2023-01-07T20:34:43.731Z,18.36
2023-01-07T20:37:16.487Z,18.35
2023-01-07T20:39:49.067Z,18.33
2023-01-07T20:42:21.847Z,18.28
2023-01-07T20:44:54.480Z,18.30
2023-01-07T20:47:27.303Z,18.26
2023-01-07T20:50:13.183Z,18.24
2023-01-07T20:53:00.152Z,18.27
2023-01-07T20:55:42.138Z,18.22
2023-01-07T20:58:32.733Z,18.26
2023-01-07T21:01:12.829Z,18.24
2023-01-07T21:03:45.940Z,18.22
2023-01-07T21:06:27.988Z,18.24
2023-01-07T21:11:47.410Z,18.15
2023-01-07T21:14:22.909Z,18.19
2023-01-07T21:16:55.456Z,18.15
2023-01-07T21:19:31.240Z,18.10
2023-01-07T21:22:15.990Z,18.13
2023-01-07T21:25:01.008Z,18.09
2023-01-07T21:27:33.648Z,18.09
2023-01-07T21:30:09.544Z,18.05
2023-01-07T21:32:53.836Z,18.14
2023-01-07T21:35:48.983Z,18.09
2023-01-07T21:38:35.685Z,18.06
2023-01-07T21:41:15.994Z,18.06
2023-01-07T21:44:11.388Z,18.06
2023-01-07T21:46:44.133Z,18.06
2023-01-07T21:49:22.901Z,18.01
2023-01-07T21:51:55.528Z,18.03
2023-01-07T21:54:32.041Z,17.99
2023-01-07T21:57:04.686Z,18.01
2023-01-07T21:59:37.288Z,18.03
2023-01-07T22:02:19.090Z,18.02
2023-01-07T22:04:54.761Z,17.97
2023-01-07T22:07:27.349Z,17.94
2023-01-07T22:09:59.968Z,17.97
2023-01-07T22:12:41.524Z,17.97
2023-01-07T22:15:14.283Z,17.92
2023-01-07T22:17:46.860Z,17.91
2023-01-07T22:20:19.576Z,17.95
2023-01-07T22:22:52.125Z,17.94
2023-01-07T22:25:24.858Z,17.92
2023-01-07T22:28:04.979Z,17.87
2023-01-07T22:30:44.968Z,17.87
2023-01-07T22:33:17.840Z,17.88
2023-01-07T22:35:51.378Z,17.89
2023-01-07T22:41:13.671Z,17.87
2023-01-07T22:43:52.526Z,17.81
2023-01-07T22:46:42.859Z,17.80
2023-01-07T22:49:17.063Z,17.84
2023-01-07T22:51:56.109Z,17.99
2023-01-07T22:54:44.176Z,17.87
2023-01-07T22:57:17.030Z,17.81
2023-01-07T22:59:50.535Z,17.81
2023-01-07T23:02:23.145Z,17.80
2023-01-07T23:04:55.696Z,17.81
2023-01-07T23:07:40.607Z,17.80
2023-01-07T23:10:13.156Z,17.80
2023-01-07T23:12:51.691Z,17.79
2023-01-07T23:15:24.610Z,17.79
2023-01-07T23:17:57.166Z,17.79
2023-01-07T23:20:29.818Z,17.75
2023-01-07T23:23:02.474Z,17.73
2023-01-07T23:25:36.705Z,17.74
2023-01-07T23:28:15.181Z,17.87
2023-01-07T23:30:48.116Z,17.73
2023-01-07T23:33:26.585Z,17.73
2023-01-07T23:36:14.931Z,17.73
2023-01-07T23:39:12.750Z,17.78
2023-01-07T23:41:45.713Z,17.70
2023-01-07T23:44:18.311Z,17.70
2023-01-07T23:47:06.150Z,17.68
2023-01-07T23:49:38.971Z,17.67
2023-01-07T23:52:20.698Z,17.66
2023-01-07T23:54:53.282Z,17.66
2023-01-07T23:57:26.256Z,17.65
2023-01-07T23:59:58.795Z,17.64
